Time;durP1;ratioP1;P1;durP2;ratioP2;P2;SDS_P1;SDS_P2;PMS_P1;PMS_P2;Temp;Humidity;BMP_temperature;BMP_pressure;BME280_temperature;BME280_humidity;BME280_pressure;Samples;Min_cycle;Max_cycle;Signal;HPM_P1;HPM_P2
2024/01/26 00:00:04;;;;;;;2.10;0.40;;;;;;;2.94;100.00;99395.97;5110914;27;20193;-61
2024/01/26 00:02:31;;;;;;;2.83;0.90;;;;;;;2.95;100.00;99399.31;5111147;28;20236;-61
2024/01/26 00:04:59;;;;;;;0.20;0.20;;;;;;;2.88;100.00;99392.81;5110997;28;20639;-61
2024/01/26 00:07:26;;;;;;;0.50;0.50;;;;;;;2.79;100.00;99399.03;5111071;28;20204;-61
2024/01/26 00:09:53;;;;;;;0.53;0.53;;;;;;;2.91;100.00;99391.03;5111156;28;20221;-61
2024/01/26 00:12:20;;;;;;;0.70;0.63;;;;;;;2.87;100.00;99388.66;5110760;28;20205;-61
2024/01/26 00:14:46;;;;;;;0.97;0.87;;;;;;;2.88;100.00;99390.31;5110996;28;20197;-61
2024/01/26 00:17:13;;;;;;;1.77;1.10;;;;;;;2.84;100.00;99398.88;5110817;28;20201;-61
2024/01/26 00:19:40;;;;;;;2.47;0.97;;;;;;;2.92;100.00;99396.91;5110788;28;20202;-61
2024/01/26 00:22:08;;;;;;;1.83;0.67;;;;;;;2.89;100.00;99397.03;5110488;28;20619;-61
2024/01/26 00:24:35;;;;;;;0.23;0.23;;;;;;;2.85;100.00;99396.31;5110611;28;20197;-61
2024/01/26 00:27:02;;;;;;;2.07;1.13;;;;;;;2.82;100.00;99405.69;5110431;28;20213;-61
2024/01/26 00:29:29;;;;;;;0.30;0.30;;;;;;;2.79;100.00;99391.47;5110554;28;20690;-61
2024/01/26 00:31:56;;;;;;;0.47;0.47;;;;;;;2.79;100.00;99388.94;5110604;28;20197;-61
2024/01/26 00:34:23;;;;;;;7.33;0.87;;;;;;;2.75;100.00;99389.13;5110701;28;20246;-60
2024/01/26 00:36:50;;;;;;;1.13;0.87;;;;;;;2.65;100.00;99396.19;5110352;28;20209;-60
2024/01/26 00:39:18;;;;;;;0.40;0.30;;;;;;;2.62;100.00;99388.72;5110278;28;20202;-60
2024/01/26 00:41:44;;;;;;;0.70;0.57;;;;;;;2.62;100.00;99393.78;5110171;28;20205;-60
2024/01/26 00:44:11;;;;;;;1.27;0.90;;;;;;;2.60;100.00;99380.38;5109913;28;20204;-61
2024/01/26 00:46:38;;;;;;;1.17;0.60;;;;;;;2.66;100.00;99390.25;5110123;28;20212;-61
2024/01/26 00:49:05;;;;;;;1.33;0.80;;;;;;;2.65;100.00;99393.66;5109942;28;20229;-61
2024/01/26 00:51:32;;;;;;;0.73;0.73;;;;;;;2.63;100.00;99390.38;5109986;28;20232;-60
2024/01/26 00:54:00;;;;;;;0.37;0.37;;;;;;;2.70;100.00;99394.31;5109980;28;20201;-60
2024/01/26 00:56:28;;;;;;;0.23;0.23;;;;;;;2.69;100.00;99388.44;5110185;28;20741;-60
2024/01/26 00:58:55;;;;;;;0.63;0.43;;;;;;;2.67;100.00;99386.84;5109711;28;20686;-61
2024/01/26 01:01:22;;;;;;;0.83;0.60;;;;;;;2.63;100.00;99390.38;5109907;28;20224;-61
2024/01/26 01:03:49;;;;;;;0.80;0.77;;;;;;;2.69;100.00;99375.00;5109647;28;20806;-60
2024/01/26 01:06:16;;;;;;;0.80;0.80;;;;;;;2.67;100.00;99382.63;5109736;28;20198;-60
2024/01/26 01:08:44;;;;;;;0.70;0.70;;;;;;;2.63;100.00;99372.69;5109709;28;20206;-61
2024/01/26 01:11:10;;;;;;;0.37;0.37;;;;;;;2.65;100.00;99379.34;5109750;28;20527;-61
2024/01/26 01:13:38;;;;;;;1.03;0.93;;;;;;;2.61;100.00;99377.78;5109609;28;20207;-61
2024/01/26 01:16:07;;;;;;;0.43;0.43;;;;;;;2.61;100.00;99377.78;5109714;28;20203;-60
2024/01/26 01:18:35;;;;;;;0.30;0.30;;;;;;;2.59;100.00;99371.13;5109533;28;20201;-61
2024/01/26 01:21:02;;;;;;;1.70;0.87;;;;;;;2.59;100.00;99378.72;5109498;28;20216;-60
2024/01/26 01:23:28;;;;;;;0.87;0.80;;;;;;;2.57;100.00;99380.50;5109415;28;20326;-60
2024/01/26 01:25:55;;;;;;;0.40;0.40;;;;;;;2.57;100.00;99381.31;5109684;28;20196;-61
2024/01/26 01:28:22;;;;;;;1.40;1.10;;;;;;;2.54;100.00;99380.59;5109338;28;20201;-61
2024/01/26 01:30:50;;;;;;;2.10;1.00;;;;;;;2.52;100.00;99374.78;5109532;28;20208;-61
2024/01/26 01:33:17;;;;;;;0.83;0.83;;;;;;;2.54;100.00;99365.47;5109682;28;20216;-60
2024/01/26 01:35:44;;;;;;;0.70;0.70;;;;;;;2.51;100.00;99373.94;5109302;28;20216;-61
2024/01/26 01:38:11;;;;;;;3.83;1.07;;;;;;;2.52;100.00;99369.72;5109146;28;20212;-61
2024/01/26 01:40:39;;;;;;;1.40;0.70;;;;;;;2.53;100.00;99371.34;5109339;28;20220;-60
2024/01/26 01:43:06;;;;;;;2.47;1.10;;;;;;;2.53;100.00;99378.94;5109072;28;20706;-60
2024/01/26 01:45:33;;;;;;;0.53;0.53;;;;;;;2.57;100.00;99370.41;5109057;28;20202;-60
2024/01/26 01:48:01;;;;;;;1.70;0.70;;;;;;;2.54;100.00;99370.50;5109218;28;20214;-60
2024/01/26 01:50:28;;;;;;;4.77;1.77;;;;;;;2.55;100.00;99372.13;5109090;28;20201;-60
2024/01/26 01:52:57;;;;;;;1.13;0.40;;;;;;;2.57;100.00;99370.41;5109217;28;20197;-60
2024/01/26 01:55:25;;;;;;;0.43;0.40;;;;;;;2.56;100.00;99368.72;5108815;28;20204;-60
2024/01/26 01:57:55;;;;;;;1.27;0.80;;;;;;;2.54;100.00;99365.47;5109208;28;20379;-60
2024/01/26 02:00:22;;;;;;;1.63;0.33;;;;;;;2.54;100.00;99375.56;5109501;28;20225;-60
2024/01/26 02:02:49;;;;;;;0.70;0.70;;;;;;;2.51;100.00;99370.59;5109011;28;20236;-60
2024/01/26 02:05:18;;;;;;;0.60;0.60;;;;;;;2.58;100.00;99377.06;5115032;28;20197;-60
2024/01/26 02:07:50;;;;;;;3.70;0.60;;;;;;;2.56;100.00;99379.66;5115750;27;20216;-60
2024/01/26 02:10:17;;;;;;;0.60;0.60;;;;;;;2.56;100.00;99383.88;5115788;27;20356;-60
2024/01/26 02:12:44;;;;;;;0.70;0.70;;;;;;;2.59;100.00;99393.84;5115541;27;20201;-60
2024/01/26 02:15:11;;;;;;;3.50;1.33;;;;;;;2.51;100.00;99395.84;5115639;27;20200;-61
2024/01/26 02:17:39;;;;;;;1.60;1.40;;;;;;;2.47;100.00;99401.00;5115580;27;20302;-61
2024/01/26 02:20:07;;;;;;;0.60;0.60;;;;;;;2.45;100.00;99402.75;5115460;27;20712;-60
2024/01/26 02:22:35;;;;;;;1.77;0.60;;;;;;;2.42;100.00;99397.81;5115681;27;20786;-61
2024/01/26 02:25:04;;;;;;;0.20;0.20;;;;;;;2.43;100.00;99394.38;5115613;27;20225;-60
2024/01/26 02:27:31;;;;;;;0.60;0.50;;;;;;;2.44;100.00;99396.06;5115532;27;20189;-60
2024/01/26 02:29:58;;;;;;;1.53;0.80;;;;;;;2.42;100.00;99402.84;5115618;27;20201;-61
2024/01/26 02:32:25;;;;;;;2.57;0.80;;;;;;;2.40;100.00;99399.53;5115518;27;20197;-61
2024/01/26 02:34:52;;;;;;;0.20;0.20;;;;;;;2.50;100.00;99395.00;5115737;27;20200;-60
2024/01/26 02:37:19;;;;;;;4.70;0.70;;;;;;;2.56;100.00;99399.00;5115503;27;20213;-60
2024/01/26 02:39:46;;;;;;;1.43;0.70;;;;;;;2.59;100.00;99388.81;5115502;27;20208;-60
2024/01/26 02:42:14;;;;;;;0.40;0.40;;;;;;;2.66;100.00;99390.25;5115249;27;20616;-60
2024/01/26 02:44:41;;;;;;;1.03;0.63;;;;;;;2.67;100.00;99386.84;5115229;27;20197;-60
2024/01/26 02:47:07;;;;;;;0.40;0.40;;;;;;;2.67;100.00;99381.81;5115465;27;20505;-60
2024/01/26 02:49:35;;;;;;;0.97;0.63;;;;;;;2.67;100.00;99387.66;5115519;27;20280;-61
2024/01/26 02:52:02;;;;;;;4.30;1.10;;;;;;;2.71;100.00;99373.25;5115657;27;20217;-60
2024/01/26 02:54:29;;;;;;;3.00;0.87;;;;;;;2.65;100.00;99378.53;5115264;27;20201;-61
2024/01/26 02:56:56;;;;;;;4.53;1.80;;;;;;;2.67;100.00;99386.84;5115526;27;20197;-61
2024/01/26 02:59:25;;;;;;;1.50;0.60;;;;;;;2.69;100.00;99387.63;5115384;27;20220;-61
2024/01/26 03:01:53;;;;;;;4.53;1.10;;;;;;;2.68;100.00;99373.38;5115088;28;20200;-61
2024/01/26 03:04:20;;;;;;;2.00;1.13;;;;;;;2.66;100.00;99385.22;5115240;27;20240;-61
2024/01/26 03:06:46;;;;;;;0.50;0.50;;;;;;;2.63;100.00;99385.31;5115411;28;20300;-60
2024/01/26 03:09:13;;;;;;;0.37;0.37;;;;;;;2.64;100.00;99376.84;5115145;27;20206;-61
2024/01/26 03:11:43;;;;;;;0.90;0.77;;;;;;;2.58;100.00;99377.06;5115051;27;20213;-61
2024/01/26 03:14:10;;;;;;;3.17;1.20;;;;;;;2.51;100.00;99381.53;5115066;27;20193;-61
2024/01/26 03:16:41;;;;;;;1.33;0.63;;;;;;;2.48;100.00;99377.41;5111263;27;20205;-61
2024/01/26 03:19:08;;;;;;;3.70;0.97;;;;;;;2.47;100.00;99375.75;5111743;28;20190;-60
2024/01/26 03:21:40;;;;;;;0.30;0.30;;;;;;;2.46;100.00;99381.66;5111852;28;20228;-60
2024/01/26 03:24:07;;;;;;;0.37;0.37;;;;;;;2.50;100.00;99384.91;5111819;28;20305;-60
2024/01/26 03:26:34;;;;;;;0.97;0.60;;;;;;;2.58;100.00;99379.59;5111733;28;20339;-60
2024/01/26 03:29:01;;;;;;;0.80;0.63;;;;;;;2.58;100.00;99377.06;5111695;28;20197;-61
2024/01/26 03:31:28;;;;;;;1.17;0.57;;;;;;;2.61;100.00;99376.97;5111599;28;20197;-61
2024/01/26 03:33:56;;;;;;;0.30;0.30;;;;;;;2.58;100.00;99382.13;5111823;28;20232;-60
2024/01/26 03:36:23;;;;;;;1.13;0.67;;;;;;;2.54;100.00;99373.03;5111529;28;20212;-60
2024/01/26 03:38:50;;;;;;;1.70;0.43;;;;;;;2.63;100.00;99370.19;5111494;28;20871;-60
2024/01/26 03:41:17;;;;;;;0.70;0.70;;;;;;;2.61;100.00;99374.44;5112204;28;20201;-61
2024/01/26 03:43:44;;;;;;;0.73;0.70;;;;;;;2.59;100.00;99371.13;5111315;28;20237;-60
2024/01/26 03:46:10;;;;;;;1.53;0.60;;;;;;;2.57;100.00;99373.75;5111187;28;20672;-60
2024/01/26 03:48:38;;;;;;;7.83;0.60;;;;;;;2.61;100.00;99376.97;5111354;28;20577;-60
2024/01/26 03:51:06;;;;;;;2.10;0.80;;;;;;;2.57;100.00;99383.84;5111341;28;21068;-60
2024/01/26 03:53:33;;;;;;;0.30;0.30;;;;;;;2.56;100.00;99393.97;5111468;28;20220;-60
2024/01/26 03:56:00;;;;;;;0.80;0.70;;;;;;;2.64;100.00;99387.78;5110955;28;20295;-60
2024/01/26 03:58:27;;;;;;;0.23;0.23;;;;;;;2.66;100.00;99391.06;5111338;28;20223;-60
2024/01/26 04:00:53;;;;;;;0.80;0.77;;;;;;;2.64;100.00;99387.78;5111495;27;20197;-60
2024/01/26 04:03:20;;;;;;;1.07;0.70;;;;;;;2.66;100.00;99387.72;5111168;27;20240;-60
2024/01/26 04:05:47;;;;;;;2.27;0.57;;;;;;;2.68;100.00;99391.03;5111128;28;20205;-61
2024/01/26 04:08:18;;;;;;;0.47;0.47;;;;;;;2.66;100.00;99391.06;5111070;28;20202;-60
2024/01/26 04:10:44;;;;;;;0.80;0.70;;;;;;;2.74;100.00;99393.34;5110968;28;20190;-60
2024/01/26 04:13:11;;;;;;;0.83;0.83;;;;;;;2.71;100.00;99393.44;5111013;28;20223;-60
2024/01/26 04:15:39;;;;;;;1.00;0.60;;;;;;;2.67;100.00;99397.75;5110707;28;20225;-60
2024/01/26 04:18:05;;;;;;;2.33;0.80;;;;;;;2.69;100.00;99412.88;5110911;28;20205;-60
2024/01/26 04:20:32;;;;;;;0.43;0.43;;;;;;;2.70;100.00;99419.56;5110785;28;20205;-60
2024/01/26 04:22:59;;;;;;;0.60;0.60;;;;;;;2.69;100.00;99415.41;5110679;28;20205;-60
2024/01/26 04:25:27;;;;;;;1.43;0.70;;;;;;;2.68;100.00;99413.75;5110652;28;20627;-61
2024/01/26 04:27:54;;;;;;;0.37;0.37;;;;;;;2.66;100.00;99410.47;5110109;28;20198;-60
2024/01/26 04:30:21;;;;;;;0.40;0.40;;;;;;;2.62;100.00;99421.53;5110365;28;20713;-60
2024/01/26 04:32:48;;;;;;;0.40;0.40;;;;;;;2.60;100.00;99418.25;5110343;28;20197;-60
2024/01/26 04:35:15;;;;;;;0.87;0.87;;;;;;;2.55;100.00;99417.56;5110409;28;20209;-60
2024/01/26 04:37:41;;;;;;;1.30;0.77;;;;;;;2.57;100.00;99428.44;5110371;28;20201;-60
2024/01/26 04:40:10;;;;;;;0.40;0.40;;;;;;;2.57;100.00;99430.97;5110214;28;20232;-61
2024/01/26 04:42:38;;;;;;;1.03;0.93;;;;;;;2.54;100.00;99431.06;5110098;28;20918;-60
2024/01/26 04:45:06;;;;;;;0.50;0.50;;;;;;;2.54;100.00;99433.59;5110331;28;20417;-60
2024/01/26 04:47:33;;;;;;;1.70;0.77;;;;;;;2.53;100.00;99439.50;5109955;28;20699;-61
2024/01/26 04:50:00;;;;;;;2.33;0.93;;;;;;;2.52;100.00;99442.91;5110392;28;20205;-60
2024/01/26 04:52:27;;;;;;;0.23;0.23;;;;;;;2.54;100.00;99443.69;5110097;28;20212;-60
2024/01/26 04:54:53;;;;;;;2.23;0.73;;;;;;;2.48;100.00;99453.09;5109683;28;20282;-60
2024/01/26 04:57:20;;;;;;;0.40;0.40;;;;;;;2.47;100.00;99451.47;5110173;28;20201;-60
2024/01/26 04:59:48;;;;;;;1.40;0.53;;;;;;;2.46;100.00;99459.09;5110001;28;20224;-60
2024/01/26 05:02:15;;;;;;;0.60;0.60;;;;;;;2.44;100.00;99456.63;5109848;28;20670;-60
2024/01/26 05:04:42;;;;;;;0.60;0.60;;;;;;;2.44;100.00;99464.19;5109952;28;20323;-61
2024/01/26 05:07:09;;;;;;;0.40;0.40;;;;;;;2.37;100.00;99470.31;5109978;28;20197;-60
2024/01/26 05:09:36;;;;;;;1.10;0.50;;;;;;;2.37;100.00;99475.34;5109577;28;20208;-60
2024/01/26 05:12:03;;;;;;;0.57;0.57;;;;;;;2.28;100.00;99470.59;5109715;27;20216;-60
2024/01/26 05:14:29;;;;;;;0.43;0.43;;;;;;;2.29;100.00;99477.28;5109875;28;20312;-61
2024/01/26 05:16:58;;;;;;;1.60;1.27;;;;;;;2.22;100.00;99470.81;5109451;28;20584;-60
2024/01/26 05:19:24;;;;;;;2.93;0.57;;;;;;;2.23;100.00;99473.25;5109863;28;20197;-60
2024/01/26 05:21:51;;;;;;;2.40;1.60;;;;;;;2.22;100.00;99460.72;5109569;28;20213;-61
2024/01/26 05:24:18;;;;;;;0.70;0.70;;;;;;;2.19;100.00;99461.63;5109174;28;20244;-61
2024/01/26 05:26:45;;;;;;;2.77;0.80;;;;;;;2.19;100.00;99460.81;5109448;28;20228;-60
2024/01/26 05:29:14;;;;;;;0.63;0.63;;;;;;;2.19;100.00;99466.69;5109514;28;20232;-60
2024/01/26 05:31:42;;;;;;;0.40;0.40;;;;;;;2.21;100.00;99459.03;5109381;28;20224;-60
2024/01/26 05:34:10;;;;;;;1.30;0.53;;;;;;;2.19;100.00;99458.28;5109216;28;20216;-60
2024/01/26 05:36:41;;;;;;;0.67;0.47;;;;;;;2.22;100.00;99475.84;5109249;28;20217;-60
2024/01/26 05:39:08;;;;;;;1.40;0.57;;;;;;;2.21;100.00;99474.19;5108620;28;20246;-60
2024/01/26 05:41:35;;;;;;;0.67;0.50;;;;;;;2.19;100.00;99475.94;5109111;28;20207;-60
2024/01/26 05:44:02;;;;;;;0.83;0.80;;;;;;;2.18;100.00;99480.16;5109362;28;20228;-60
2024/01/26 05:46:28;;;;;;;4.43;1.17;;;;;;;2.17;100.00;99472.63;5109026;28;20204;-60
2024/01/26 05:48:57;;;;;;;1.10;1.00;;;;;;;2.17;100.00;99472.63;5109729;28;20192;-60
2024/01/26 05:51:25;;;;;;;3.77;2.07;;;;;;;2.17;100.00;99472.63;5109190;28;20209;-60
2024/01/26 05:53:53;;;;;;;3.23;1.77;;;;;;;2.10;100.00;99469.50;5108962;28;20204;-60
2024/01/26 05:56:20;;;;;;;0.50;0.40;;;;;;;2.12;100.00;99469.44;5109125;28;20205;-60
2024/01/26 05:58:47;;;;;;;2.30;1.57;;;;;;;2.13;100.00;99466.06;5108954;28;20697;-60
2024/01/26 06:01:13;;;;;;;1.63;1.13;;;;;;;2.09;100.00;99472.03;5109146;28;20205;-61
2024/01/26 06:03:40;;;;;;;2.47;0.90;;;;;;;2.08;100.00;99467.88;5109155;28;20229;-60
2024/01/26 06:06:07;;;;;;;1.63;1.13;;;;;;;2.12;100.00;99474.47;5108810;28;20720;-61
2024/01/26 06:08:36;;;;;;;0.47;0.43;;;;;;;2.06;100.00;99469.63;5108943;28;20600;-60
2024/01/26 06:11:03;;;;;;;0.47;0.47;;;;;;;2.07;100.00;99468.78;5108764;28;20720;-60
2024/01/26 06:13:30;;;;;;;1.27;1.13;;;;;;;2.08;100.00;99467.88;5108888;28;20198;-60
2024/01/26 06:15:57;;;;;;;0.80;0.60;;;;;;;2.14;100.00;99472.72;5109161;28;20201;-60
2024/01/26 06:18:23;;;;;;;1.07;0.80;;;;;;;2.16;100.00;99481.09;5108904;28;20202;-60
2024/01/26 06:20:50;;;;;;;0.60;0.60;;;;;;;2.24;100.00;99481.66;5108679;28;20592;-60
2024/01/26 06:23:17;;;;;;;0.70;0.70;;;;;;;2.26;100.00;99478.19;5109129;28;20205;-60
2024/01/26 06:25:45;;;;;;;5.30;0.67;;;;;;;2.33;100.00;99478.84;5109226;28;20627;-61
2024/01/26 06:28:12;;;;;;;0.93;0.93;;;;;;;2.45;100.00;99485.19;5108605;28;20204;-60
2024/01/26 06:30:39;;;;;;;1.07;0.73;;;;;;;2.43;100.00;99490.28;5108982;28;20200;-60
2024/01/26 06:33:06;;;;;;;2.20;0.93;;;;;;;2.48;100.00;99498.53;5108651;28;20205;-61
2024/01/26 06:35:33;;;;;;;1.20;1.00;;;;;;;2.51;100.00;99497.63;5108590;28;20205;-60
2024/01/26 06:38:00;;;;;;;0.50;0.50;;;;;;;2.56;100.00;99499.97;5108765;28;20201;-60
2024/01/26 06:40:27;;;;;;;0.73;0.67;;;;;;;2.63;100.00;99497.22;5108671;28;20202;-60
2024/01/26 06:42:55;;;;;;;0.47;0.47;;;;;;;2.69;100.00;99506.28;5108582;28;20686;-60
2024/01/26 06:45:21;;;;;;;2.53;1.37;;;;;;;2.68;100.00;99510.50;5108299;28;20233;-60
2024/01/26 06:47:48;;;;;;;0.80;0.70;;;;;;;2.65;100.00;99514.84;5108671;28;20206;-60
2024/01/26 06:50:15;;;;;;;1.20;0.80;;;;;;;2.68;100.00;99519.78;5109755;28;20202;-60
2024/01/26 06:52:42;;;;;;;0.80;0.80;;;;;;;2.77;100.00;99516.94;5112438;28;20208;-60
2024/01/26 06:55:09;;;;;;;1.63;1.33;;;;;;;2.82;100.00;99522.69;5112455;28;20225;-60
2024/01/26 06:57:36;;;;;;;1.83;1.27;;;;;;;2.94;100.00;99519.72;5112380;28;20198;-60
2024/01/26 07:00:06;;;;;;;1.10;1.00;;;;;;;2.92;100.00;99526.53;5112326;28;20671;-60
2024/01/26 07:02:34;;;;;;;2.03;1.20;;;;;;;2.94;100.00;99532.38;5112388;27;20197;-60
2024/01/26 07:05:01;;;;;;;0.80;0.80;;;;;;;3.20;100.00;99533.19;5112284;28;20229;-61
2024/01/26 07:07:27;;;;;;;1.27;1.00;;;;;;;3.49;100.00;99538.88;5112136;28;20197;-60
2024/01/26 07:09:54;;;;;;;1.40;1.30;;;;;;;3.73;100.00;99544.78;5112192;28;20220;-60
2024/01/26 07:12:21;;;;;;;7.80;0.90;;;;;;;3.82;100.00;99545.25;5111970;28;20209;-60
2024/01/26 07:14:48;;;;;;;8.30;1.30;;;;;;;3.66;100.00;99551.72;5112051;28;20682;-60
2024/01/26 07:17:16;;;;;;;2.07;0.87;;;;;;;3.60;100.00;99541.84;5111919;28;20200;-61
2024/01/26 07:19:43;;;;;;;7.40;0.70;;;;;;;3.61;100.00;99553.63;5111961;28;20196;-61
2024/01/26 07:22:09;;;;;;;1.67;1.00;;;;;;;3.52;100.00;99548.88;5111645;28;20697;-60
2024/01/26 07:24:37;;;;;;;1.43;1.13;;;;;;;3.56;100.00;99541.13;5111731;28;20236;-60
2024/01/26 07:27:04;;;;;;;3.83;0.90;;;;;;;3.59;100.00;99560.44;5111540;28;20200;-61
2024/01/26 07:29:32;;;;;;;2.20;1.50;;;;;;;3.63;100.00;99567.84;5111703;28;20204;-60
2024/01/26 07:31:59;;;;;;;0.43;0.43;;;;;;;3.78;100.00;99569.00;5111636;28;20197;-61
2024/01/26 07:34:27;;;;;;;5.50;0.93;;;;;;;3.75;100.00;99569.13;5111858;28;20201;-61
2024/01/26 07:36:54;;;;;;;1.23;0.83;;;;;;;3.80;100.00;99579.88;5111416;28;20539;-61
2024/01/26 07:39:22;;;;;;;0.57;0.57;;;;;;;3.79;100.00;99573.19;5111562;28;20197;-61
2024/01/26 07:41:49;;;;;;;0.83;0.83;;;;;;;3.84;100.00;99576.38;5111658;28;20224;-60
2024/01/26 07:44:16;;;;;;;1.03;0.90;;;;;;;3.98;100.00;99578.38;5111601;28;20232;-61
2024/01/26 07:46:43;;;;;;;0.93;0.70;;;;;;;4.00;100.00;99575.78;5111810;28;20201;-61
2024/01/26 07:49:09;;;;;;;2.37;0.97;;;;;;;3.98;100.00;99591.00;5111204;28;20197;-61
2024/01/26 07:51:37;;;;;;;2.37;1.57;;;;;;;3.97;100.00;99591.09;5111102;28;20209;-61
2024/01/26 07:54:05;;;;;;;1.50;1.07;;;;;;;3.94;100.00;99591.19;5111119;28;20671;-61
2024/01/26 07:56:32;;;;;;;0.57;0.57;;;;;;;3.96;100.00;99599.56;5111050;28;20197;-61
2024/01/26 07:58:58;;;;;;;1.90;1.20;;;;;;;4.05;100.00;99594.16;5111182;28;20205;-61
2024/01/26 08:01:25;;;;;;;2.10;0.90;;;;;;;4.12;100.00;99600.63;5110493;28;20682;-61
2024/01/26 08:03:52;;;;;;;3.40;1.10;;;;;;;4.22;100.00;99601.94;5111129;28;20212;-61
2024/01/26 08:06:19;;;;;;;1.37;1.27;;;;;;;4.35;100.00;99591.34;5111066;28;20233;-61
2024/01/26 08:08:47;;;;;;;3.30;1.40;;;;;;;4.37;100.00;99604.78;5111215;28;20296;-61
2024/01/26 08:11:14;;;;;;;1.53;1.00;;;;;;;4.42;100.00;99602.88;5111193;28;20216;-61
2024/01/26 08:13:41;;;;;;;1.43;0.83;;;;;;;4.52;100.00;99601.63;5110781;27;20203;-61
2024/01/26 08:16:07;;;;;;;4.23;1.20;;;;;;;4.51;100.00;99602.53;5110801;28;20846;-61
2024/01/26 08:18:34;;;;;;;3.97;1.23;;;;;;;4.54;100.00;99598.16;5110992;28;20201;-61
2024/01/26 08:21:01;;;;;;;2.40;1.23;;;;;;;4.43;100.00;99594.41;5110731;28;20193;-61
2024/01/26 08:23:28;;;;;;;1.13;1.03;;;;;;;4.38;100.00;99591.22;5110877;28;20205;-60
2024/01/26 08:25:56;;;;;;;2.27;1.00;;;;;;;4.42;100.00;99598.66;5110579;28;20244;-61
2024/01/26 08:28:23;;;;;;;1.90;1.07;;;;;;;4.86;100.00;99597.75;5110727;28;20200;-61
2024/01/26 08:30:49;;;;;;;3.73;1.47;;;;;;;5.45;100.00;99602.88;5110380;28;20204;-61
2024/01/26 08:33:16;;;;;;;1.50;1.40;;;;;;;5.83;100.00;99607.16;5110606;28;20276;-61
2024/01/26 08:35:43;;;;;;;2.80;1.80;;;;;;;6.23;100.00;99602.88;5110438;28;20207;-61
2024/01/26 08:38:10;;;;;;;1.87;1.30;;;;;;;6.16;100.00;99619.25;5110347;28;20250;-61
2024/01/26 08:40:37;;;;;;;1.80;1.23;;;;;;;6.27;100.00;99611.97;5110271;28;20201;-61
2024/01/26 08:43:05;;;;;;;3.60;1.83;;;;;;;6.46;100.00;99612.78;5110489;28;20208;-61
2024/01/26 08:45:32;;;;;;;2.33;1.47;;;;;;;6.93;99.65;99612.22;5110177;28;20233;-61
2024/01/26 08:47:58;;;;;;;2.47;1.60;;;;;;;7.04;97.66;99606.63;5110317;28;20197;-61
2024/01/26 08:50:25;;;;;;;5.57;2.10;;;;;;;7.14;97.27;99609.53;5110161;28;20201;-60
2024/01/26 08:52:52;;;;;;;2.47;1.43;;;;;;;6.94;96.17;99603.69;5110292;28;20231;-61
2024/01/26 08:55:19;;;;;;;3.77;1.73;;;;;;;7.01;96.39;99597.41;5109857;28;20201;-61
2024/01/26 08:57:48;;;;;;;5.97;1.80;;;;;;;6.95;96.40;99605.34;5109934;28;20223;-60
2024/01/26 09:00:19;;;;;;;4.17;1.63;;;;;;;7.02;95.12;99611.78;5110240;28;20224;-61
2024/01/26 09:02:46;;;;;;;4.03;1.50;;;;;;;7.39;93.56;99604.84;5109976;28;20197;-61
2024/01/26 09:05:12;;;;;;;4.60;2.07;;;;;;;7.61;92.73;99624.09;5109686;28;20237;-61
2024/01/26 09:07:39;;;;;;;2.50;1.13;;;;;;;7.92;91.48;99629.25;5109726;28;20287;-60
2024/01/26 09:10:07;;;;;;;3.30;1.77;;;;;;;7.94;90.64;99626.59;5109566;28;20227;-61
2024/01/26 09:12:35;;;;;;;3.30;1.80;;;;;;;7.83;90.18;99634.00;5109522;28;20197;-61
2024/01/26 09:15:02;;;;;;;2.93;1.43;;;;;;;7.83;90.88;99624.63;5109035;28;20205;-61
2024/01/26 09:17:30;;;;;;;2.47;1.63;;;;;;;7.67;89.34;99631.41;5109798;28;20205;-61
2024/01/26 09:22:27;;;;;;;6.40;1.67;;;;;;;7.47;90.99;99614.63;5038444;28;20277;-66
2024/01/26 09:24:54;;;;;;;3.80;1.33;;;;;;;7.81;90.03;99611.16;5048601;28;20227;-65
2024/01/26 09:27:21;;;;;;;2.20;1.47;;;;;;;7.64;90.30;99608.66;5048779;28;20214;-66
2024/01/26 09:29:48;;;;;;;1.33;1.23;;;;;;;7.83;90.83;99611.91;5068456;28;20316;-65
2024/01/26 09:32:15;;;;;;;3.73;1.50;;;;;;;7.87;87.78;99615.94;5065513;28;20210;-65
2024/01/26 09:34:44;;;;;;;1.07;0.97;;;;;;;7.90;88.77;99615.75;5055216;28;20211;-65
2024/01/26 09:37:10;;;;;;;3.57;1.43;;;;;;;8.06;88.83;99614.97;5048551;28;20199;-65
2024/01/26 09:39:37;;;;;;;3.53;1.90;;;;;;;8.08;88.76;99613.97;5050028;28;20202;-65
2024/01/26 09:42:05;;;;;;;4.43;1.80;;;;;;;8.20;87.74;99606.56;5051979;28;20206;-65
2024/01/26 09:44:32;;;;;;;2.07;1.10;;;;;;;8.42;87.11;99616.47;5048538;28;20211;-65
2024/01/26 09:47:03;;;;;;;2.93;1.80;;;;;;;8.59;86.99;99618.91;5048773;28;20210;-65
2024/01/26 09:49:30;;;;;;;9.13;1.60;;;;;;;8.65;86.23;99612.66;5056648;28;20205;-65
2024/01/26 09:51:58;;;;;;;1.67;1.40;;;;;;;8.99;86.19;99616.66;5069099;28;20206;-65
2024/01/26 09:54:27;;;;;;;1.73;1.40;;;;;;;8.88;85.31;99619.00;5068360;28;20221;-65
2024/01/26 09:56:55;;;;;;;1.67;1.47;;;;;;;8.49;86.40;99610.91;5067456;28;20213;-64
2024/01/26 09:59:21;;;;;;;1.23;1.13;;;;;;;8.55;85.72;99607.22;5068269;28;20207;-64
2024/01/26 10:01:50;;;;;;;3.07;1.60;;;;;;;8.52;87.50;99620.13;5068510;28;20214;-64
2024/01/26 10:04:18;;;;;;;3.13;1.63;;;;;;;8.60;87.53;99625.63;5067743;28;20206;-64
2024/01/26 10:06:46;;;;;;;2.20;1.30;;;;;;;8.83;86.49;99617.50;5067711;28;20241;-64
2024/01/26 10:09:14;;;;;;;4.17;1.87;;;;;;;8.80;85.75;99620.25;5068225;28;20203;-64
2024/01/26 10:11:41;;;;;;;2.13;1.20;;;;;;;8.74;85.49;99618.03;5068274;28;20583;-64
2024/01/26 10:14:08;;;;;;;2.67;1.57;;;;;;;8.64;86.11;99616.94;5068354;28;20198;-64
2024/01/26 10:16:35;;;;;;;2.40;1.33;;;;;;;8.63;85.96;99610.16;5068132;28;20199;-64
2024/01/26 10:19:02;;;;;;;3.73;1.30;;;;;;;8.75;86.26;99609.47;5068122;28;20202;-64
2024/01/26 10:21:29;;;;;;;3.40;1.77;;;;;;;8.91;84.61;99608.63;5068435;28;20210;-64
2024/01/26 10:23:55;;;;;;;7.33;2.30;;;;;;;9.04;84.90;99614.66;5068366;28;20199;-63
2024/01/26 10:26:24;;;;;;;2.47;1.60;;;;;;;9.13;85.20;99614.13;5071207;28;20242;-62
2024/01/26 10:28:53;;;;;;;2.90;1.57;;;;;;;9.05;84.18;99614.56;5072707;28;20214;-64
2024/01/26 10:31:20;;;;;;;6.33;1.60;;;;;;;9.62;84.68;99606.13;5072419;28;20210;-64
2024/01/26 10:33:50;;;;;;;3.40;1.97;;;;;;;10.04;82.50;99612.13;5071863;28;20590;-64
2024/01/26 10:36:19;;;;;;;3.80;2.07;;;;;;;10.25;81.67;99624.47;5072248;28;20195;-64
2024/01/26 10:38:47;;;;;;;2.17;1.60;;;;;;;10.15;79.91;99619.94;5071960;28;20228;-64
2024/01/26 10:41:20;;;;;;;3.70;1.60;;;;;;;9.91;82.04;99618.88;5072017;28;20199;-64
2024/01/26 10:43:52;;;;;;;3.57;1.53;;;;;;;10.12;80.83;99615.03;5071919;28;20191;-64
2024/01/26 10:46:20;;;;;;;1.80;1.03;;;;;;;9.72;80.95;99612.34;5071703;28;20407;-64
2024/01/26 10:48:47;;;;;;;2.97;1.87;;;;;;;9.64;82.57;99598.38;5071710;28;20202;-64
2024/01/26 10:51:14;;;;;;;1.80;1.30;;;;;;;9.74;82.79;99605.41;5070254;28;20710;-64
2024/01/26 10:53:46;;;;;;;4.60;2.17;;;;;;;9.86;84.53;99592.78;5070589;28;20264;-63
2024/01/26 10:56:13;;;;;;;2.80;2.10;;;;;;;9.98;83.01;99592.88;5070638;28;20261;-64
2024/01/26 10:58:40;;;;;;;1.73;1.57;;;;;;;10.13;80.47;99586.00;5070660;28;20206;-63
2024/01/26 11:01:09;;;;;;;4.50;1.60;;;;;;;9.68;81.45;99600.66;5071827;28;20211;-63
2024/01/26 11:03:37;;;;;;;3.00;1.60;;;;;;;9.49;84.07;99590.72;5071347;28;20559;-63
2024/01/26 11:06:08;;;;;;;8.13;1.43;;;;;;;9.51;85.13;99599.13;5071331;28;20231;-63
2024/01/26 11:08:35;;;;;;;1.83;1.27;;;;;;;9.69;83.25;99607.41;5071278;28;20191;-62
2024/01/26 11:11:02;;;;;;;3.10;1.97;;;;;;;9.46;84.87;99596.03;5071365;28;20194;-62
2024/01/26 11:13:37;;;;;;;4.20;1.97;;;;;;;9.53;85.06;99586.25;5071525;28;20199;-62
2024/01/26 11:16:04;;;;;;;2.67;1.53;;;;;;;9.62;83.31;99585.69;5071582;28;20190;-62
2024/01/26 11:18:35;;;;;;;4.37;1.73;;;;;;;9.21;86.25;99583.88;5071478;28;20202;-62
2024/01/26 11:21:03;;;;;;;4.27;1.87;;;;;;;9.21;87.21;99576.22;5071044;28;20699;-62
2024/01/26 11:23:38;;;;;;;2.30;1.67;;;;;;;9.14;87.24;99585.16;5071262;28;20199;-61
2024/01/26 11:26:14;;;;;;;3.80;1.83;;;;;;;9.17;86.70;99579.88;5070999;28;20218;-62
2024/01/26 11:28:41;;;;;;;2.03;1.57;;;;;;;9.63;86.82;99582.25;5070939;28;20202;-62
2024/01/26 11:31:08;;;;;;;2.07;1.60;;;;;;;9.70;85.37;99591.19;5071166;28;20199;-62
2024/01/26 11:33:39;;;;;;;2.13;1.30;;;;;;;9.80;83.91;99588.88;5070864;28;20198;-62
2024/01/26 11:36:08;;;;;;;5.03;1.90;;;;;;;9.71;85.00;99585.16;5070178;28;20272;-64